createdAt,value
2019-03-21T00:01:58.732Z,16.67
2019-03-21T00:04:25.311Z,16.63
2019-03-21T00:06:51.998Z,16.77
2019-03-21T00:09:18.520Z,15.77
2019-03-21T00:12:01.953Z,17.60
2019-03-21T00:14:38.416Z,16.50
2019-03-21T00:17:07.684Z,16.37
2019-03-21T00:19:34.424Z,17.43
2019-03-21T00:22:02.650Z,17.83
2019-03-21T00:24:29.104Z,19.00
2019-03-21T00:26:55.730Z,18.77
2019-03-21T00:29:22.174Z,18.47
2019-03-21T00:31:49.626Z,18.07
2019-03-21T00:34:16.116Z,17.97
2019-03-21T00:36:43.122Z,19.03
2019-03-21T00:39:09.813Z,18.40
2019-03-21T00:41:36.460Z,18.67
2019-03-21T00:44:04.079Z,18.80
2019-03-21T00:46:31.149Z,19.60
2019-03-21T00:48:57.929Z,19.10
2019-03-21T00:51:24.333Z,19.07
2019-03-21T00:53:50.961Z,19.63
2019-03-21T00:56:17.999Z,18.80
2019-03-21T00:58:44.965Z,18.77
2019-03-21T01:01:12.339Z,19.77
2019-03-21T01:03:39.296Z,19.37
2019-03-21T01:06:06.034Z,18.40
2019-03-21T01:08:32.608Z,18.03
2019-03-21T01:11:19.332Z,18.93
2019-03-21T01:13:46.795Z,20.00
2019-03-21T01:16:13.344Z,19.47
2019-03-21T01:18:43.214Z,21.00
2019-03-21T01:21:10.328Z,19.90
2019-03-21T01:23:36.798Z,19.80
2019-03-21T01:26:09.986Z,20.13
2019-03-21T01:28:37.275Z,20.97
2019-03-21T01:31:03.908Z,22.13
2019-03-21T01:33:30.468Z,20.87
2019-03-21T01:35:57.403Z,26.73
2019-03-21T01:38:25.311Z,21.53
2019-03-21T01:40:58.901Z,22.33
2019-03-21T01:43:25.518Z,22.20
2019-03-21T01:45:52.151Z,21.97
2019-03-21T01:48:18.790Z,21.30
2019-03-21T01:50:45.334Z,24.37
2019-03-21T01:53:11.870Z,24.40
2019-03-21T01:55:38.469Z,24.43
2019-03-21T01:58:05.404Z,24.40
2019-03-21T02:00:40.581Z,24.53
2019-03-21T02:03:07.245Z,26.20
2019-03-21T02:05:34.262Z,24.93
2019-03-21T02:08:00.874Z,27.10
2019-03-21T02:10:28.994Z,26.20
2019-03-21T02:12:55.776Z,25.97
2019-03-21T02:15:22.179Z,24.90
2019-03-21T02:17:49.475Z,25.97
2019-03-21T02:20:18.297Z,26.27
2019-03-21T02:22:44.793Z,25.73
2019-03-21T02:25:15.087Z,26.03
2019-03-21T02:27:41.579Z,25.33
2019-03-21T02:30:20.780Z,25.87
2019-03-21T02:32:49.701Z,25.43
2019-03-21T02:35:16.111Z,26.37
2019-03-21T02:37:43.889Z,26.97
2019-03-21T02:40:21.470Z,26.93
2019-03-21T02:42:48.388Z,26.77
2019-03-21T02:45:15.501Z,27.70
2019-03-21T02:47:42.124Z,27.83
2019-03-21T02:50:18.174Z,28.27
2019-03-21T02:52:44.820Z,25.97
2019-03-21T02:55:13.412Z,28.10
2019-03-21T02:57:39.790Z,27.77
2019-03-21T03:00:15.384Z,28.43
2019-03-21T03:02:43.927Z,27.00
2019-03-21T03:05:16.654Z,27.97
2019-03-21T03:07:43.192Z,27.40
2019-03-21T03:10:14.992Z,27.67
2019-03-21T03:12:41.818Z,26.70
2019-03-21T03:15:22.732Z,26.33
2019-03-21T03:17:43.583Z,26.73
2019-03-21T03:20:15.717Z,26.57
2019-03-21T03:22:43.357Z,25.20
2019-03-21T03:25:13.281Z,27.10
2019-03-21T03:27:39.883Z,25.20
2019-03-21T03:30:14.841Z,25.83
2019-03-21T03:32:41.850Z,26.97
2019-03-21T03:35:10.972Z,27.23
2019-03-21T03:37:37.607Z,26.73
2019-03-21T03:40:11.271Z,28.30
2019-03-21T03:42:38.877Z,26.87
2019-03-21T03:45:09.135Z,28.83
2019-03-21T03:47:35.760Z,27.27
2019-03-21T03:50:03.505Z,27.20
2019-03-21T03:52:30.390Z,27.33
2019-03-21T03:54:57.010Z,27.77
2019-03-21T03:57:24.033Z,26.73
2019-03-21T03:59:51.936Z,26.83
2019-03-21T04:02:19.897Z,27.30
2019-03-21T04:04:47.709Z,27.80
2019-03-21T04:07:14.516Z,28.40
2019-03-21T04:09:41.248Z,27.20
2019-03-21T04:12:07.975Z,27.33
2019-03-21T04:14:36.478Z,28.80
2019-03-21T04:17:03.002Z,28.47
2019-03-21T04:19:29.842Z,27.40
2019-03-21T04:21:56.254Z,28.47
2019-03-21T04:24:22.932Z,28.80
2019-03-21T04:26:50.388Z,27.13
2019-03-21T04:29:16.946Z,27.43
2019-03-21T04:31:43.496Z,26.70
2019-03-21T04:34:10.578Z,29.00
2019-03-21T04:36:37.102Z,28.80
2019-03-21T04:39:07.257Z,29.13
2019-03-21T04:41:35.406Z,29.33
2019-03-21T04:44:02.825Z,29.07
2019-03-21T04:46:30.688Z,28.87
2019-03-21T04:48:57.099Z,28.67
2019-03-21T04:51:23.631Z,30.10
2019-03-21T04:53:50.553Z,28.50
2019-03-21T04:56:17.301Z,26.40
2019-03-21T04:58:43.735Z,27.63
2019-03-21T05:01:10.261Z,26.67
2019-03-21T05:03:38.889Z,25.13
2019-03-21T05:06:05.379Z,27.27
2019-03-21T05:08:31.850Z,27.77
2019-03-21T05:10:59.705Z,26.90
2019-03-21T05:13:26.626Z,27.37
2019-03-21T05:15:54.558Z,27.30
2019-03-21T05:18:28.125Z,25.77
2019-03-21T05:20:54.708Z,25.33
2019-03-21T05:23:21.208Z,24.43
2019-03-21T05:25:47.742Z,24.67
2019-03-21T05:28:14.902Z,23.67
2019-03-21T05:30:47.900Z,24.60
2019-03-21T05:33:14.524Z,25.00
2019-03-21T05:35:41.095Z,25.03
2019-03-21T05:38:09.070Z,24.13
2019-03-21T05:40:35.565Z,23.93
2019-03-21T05:43:24.148Z,21.37
2019-03-21T05:45:52.511Z,22.23
2019-03-21T05:48:18.860Z,22.63
2019-03-21T05:50:46.842Z,22.17
2019-03-21T05:53:13.337Z,22.70
2019-03-21T05:55:39.891Z,22.40
2019-03-21T05:58:06.439Z,21.00
2019-03-21T06:00:40.954Z,21.83
2019-03-21T06:03:11.542Z,22.37
2019-03-21T06:05:41.188Z,21.50
2019-03-21T06:08:17.188Z,20.93
2019-03-21T06:10:45.110Z,22.27
2019-03-21T06:13:11.512Z,28.87
2019-03-21T06:15:39.817Z,22.30
2019-03-21T06:18:16.049Z,21.93
2019-03-21T06:20:55.200Z,21.70
2019-03-21T06:23:33.529Z,21.60
2019-03-21T06:26:14.529Z,22.13
2019-03-21T06:28:41.084Z,20.70
2019-03-21T06:31:07.961Z,20.63
2019-03-21T06:33:34.505Z,19.77
2019-03-21T06:36:01.033Z,20.70
2019-03-21T06:38:28.035Z,19.57
2019-03-21T06:40:54.736Z,19.97
2019-03-21T06:43:21.159Z,20.73
2019-03-21T06:45:48.342Z,19.93
2019-03-21T06:48:14.959Z,21.57
2019-03-21T06:50:41.411Z,33.87
2019-03-21T06:53:07.835Z,29.20
2019-03-21T06:55:34.328Z,27.23
2019-03-21T06:58:01.271Z,48.47
2019-03-21T07:00:29.700Z,37.10
2019-03-21T07:02:56.178Z,34.37
2019-03-21T07:05:23.004Z,20.60
2019-03-21T07:07:49.514Z,18.13
2019-03-21T07:10:16.095Z,21.37
2019-03-21T07:12:42.792Z,20.77
2019-03-21T07:15:11.109Z,20.83
2019-03-21T07:17:37.705Z,18.37
2019-03-21T07:20:07.232Z,19.20
2019-03-21T07:22:33.907Z,19.17
2019-03-21T07:25:00.523Z,18.10
2019-03-21T07:27:28.083Z,19.40
2019-03-21T07:29:54.829Z,18.67
2019-03-21T07:32:21.369Z,17.97
2019-03-21T07:34:47.787Z,19.40
2019-03-21T07:37:14.480Z,17.87
2019-03-21T07:39:40.875Z,16.00
2019-03-21T07:42:07.815Z,13.80
2019-03-21T07:44:34.296Z,14.97
2019-03-21T07:47:11.702Z,15.87
2019-03-21T07:49:29.250Z,14.67
2019-03-21T07:51:55.761Z,14.80
2019-03-21T07:54:22.156Z,14.47
2019-03-21T07:56:48.564Z,14.13
2019-03-21T07:59:15.022Z,13.13
2019-03-21T08:01:43.154Z,11.80
2019-03-21T08:04:09.650Z,12.23
2019-03-21T08:06:36.311Z,12.10
2019-03-21T08:09:05.544Z,11.27
2019-03-21T08:11:32.005Z,12.27
2019-03-21T08:13:58.523Z,10.67
2019-03-21T08:16:24.980Z,16.70
2019-03-21T08:18:51.939Z,16.40
2019-03-21T08:21:18.487Z,11.87
2019-03-21T08:23:45.248Z,12.67
2019-03-21T08:26:11.925Z,13.30
2019-03-21T08:28:38.531Z,14.40
2019-03-21T08:31:10.727Z,14.57
2019-03-21T08:33:37.069Z,15.67
2019-03-21T08:36:03.699Z,16.37
2019-03-21T08:38:30.429Z,15.23
2019-03-21T08:40:57.006Z,12.63
2019-03-21T08:43:23.512Z,15.13
2019-03-21T08:45:51.438Z,13.53
2019-03-21T08:48:17.909Z,15.57
2019-03-21T08:50:44.708Z,15.67
2019-03-21T08:53:11.658Z,14.07
2019-03-21T08:55:38.086Z,14.87
2019-03-21T08:58:05.155Z,12.60
2019-03-21T09:00:34.452Z,13.43
2019-03-21T09:03:00.789Z,14.10
2019-03-21T09:05:27.257Z,13.73
2019-03-21T09:07:53.979Z,14.23
2019-03-21T09:10:20.402Z,14.07
2019-03-21T09:12:46.971Z,13.90
2019-03-21T09:15:14.088Z,13.93
2019-03-21T09:17:41.211Z,14.10
2019-03-21T09:20:08.567Z,13.37
2019-03-21T09:22:35.087Z,14.70
2019-03-21T09:25:04.650Z,14.67
2019-03-21T09:27:30.876Z,14.20
2019-03-21T09:29:58.729Z,14.43
2019-03-21T09:32:25.413Z,14.80
2019-03-21T09:34:52.065Z,15.83
2019-03-21T09:37:18.707Z,17.50
2019-03-21T09:39:46.590Z,16.70
2019-03-21T09:42:13.108Z,15.30
2019-03-21T09:44:39.682Z,16.50
2019-03-21T09:47:06.210Z,15.03
2019-03-21T09:49:34.745Z,15.80
2019-03-21T09:52:01.438Z,15.43
2019-03-21T09:54:27.910Z,15.60
2019-03-21T09:56:54.596Z,16.33
2019-03-21T09:59:21.147Z,14.17
2019-03-21T10:01:48.746Z,12.63
2019-03-21T10:04:16.689Z,13.03
2019-03-21T10:06:43.707Z,13.97
2019-03-21T10:09:10.121Z,13.70
2019-03-21T10:11:38.503Z,13.73
2019-03-21T10:14:06.843Z,12.17
2019-03-21T10:16:35.721Z,13.33
2019-03-21T10:19:02.435Z,13.30
2019-03-21T10:21:42.434Z,14.10
2019-03-21T10:23:57.467Z,13.83
2019-03-21T10:26:23.899Z,14.67
2019-03-21T10:28:51.614Z,11.43
2019-03-21T10:31:18.665Z,12.00
2019-03-21T10:33:46.318Z,13.70
2019-03-21T10:36:15.914Z,13.23
2019-03-21T10:38:43.319Z,13.97
2019-03-21T10:41:09.895Z,14.73
2019-03-21T10:43:36.763Z,14.13
2019-03-21T10:46:03.432Z,12.70
2019-03-21T10:48:30.112Z,12.23
2019-03-21T10:50:58.005Z,13.30
2019-03-21T10:53:24.519Z,15.23
2019-03-21T10:55:51.152Z,14.67
2019-03-21T10:58:17.793Z,13.93
2019-03-21T11:00:44.216Z,15.23
2019-03-21T11:03:10.884Z,15.07
2019-03-21T11:05:39.261Z,13.67
2019-03-21T11:08:06.362Z,13.03
2019-03-21T11:10:33.996Z,13.30
2019-03-21T11:13:01.948Z,13.23
2019-03-21T11:15:29.846Z,11.80
2019-03-21T11:17:56.622Z,14.00
2019-03-21T11:20:28.832Z,13.97
2019-03-21T11:22:55.901Z,14.23
2019-03-21T11:25:22.754Z,14.77
2019-03-21T11:27:49.275Z,14.07
2019-03-21T11:30:19.515Z,13.37
2019-03-21T11:32:46.077Z,14.33
2019-03-21T11:35:12.665Z,15.27
2019-03-21T11:37:39.097Z,15.70
2019-03-21T11:40:05.772Z,15.17
2019-03-21T11:42:32.585Z,14.87
2019-03-21T11:44:58.995Z,14.50
2019-03-21T11:47:26.700Z,15.50
2019-03-21T11:49:53.221Z,17.10
2019-03-21T11:52:20.224Z,15.60
2019-03-21T11:54:46.900Z,15.13
2019-03-21T11:57:13.451Z,14.73
2019-03-21T11:59:51.133Z,15.83
2019-03-21T12:02:09.433Z,15.43
2019-03-21T12:04:35.906Z,15.30
2019-03-21T12:07:02.535Z,16.87
2019-03-21T12:09:29.386Z,16.47
2019-03-21T12:11:56.755Z,18.27
2019-03-21T12:14:23.352Z,19.10
2019-03-21T12:16:50.038Z,16.90
2019-03-21T12:19:16.668Z,16.37
2019-03-21T12:21:43.186Z,15.10
2019-03-21T12:24:10.795Z,15.33
2019-03-21T12:26:37.303Z,16.27
2019-03-21T12:29:03.953Z,17.30
2019-03-21T12:31:30.817Z,18.90
2019-03-21T12:33:59.260Z,18.67
2019-03-21T12:36:25.963Z,17.60
2019-03-21T12:38:52.759Z,15.93
2019-03-21T12:41:19.309Z,16.83
2019-03-21T12:43:46.127Z,17.47
2019-03-21T12:46:13.347Z,17.37
2019-03-21T12:48:41.487Z,16.30
2019-03-21T12:51:08.571Z,15.27
2019-03-21T12:53:35.172Z,16.63
2019-03-21T12:56:01.790Z,15.40
2019-03-21T12:58:28.411Z,16.07
2019-03-21T13:00:56.012Z,15.80
2019-03-21T13:03:23.832Z,14.17
2019-03-21T13:05:50.262Z,14.70
2019-03-21T13:08:16.818Z,16.97
2019-03-21T13:10:43.342Z,20.40
2019-03-21T13:13:10.128Z,18.97
2019-03-21T13:15:36.667Z,18.60
2019-03-21T13:18:05.568Z,18.63
2019-03-21T13:20:32.145Z,17.07
2019-03-21T13:22:59.074Z,17.43
2019-03-21T13:25:25.545Z,17.80
2019-03-21T13:27:52.085Z,17.80
2019-03-21T13:30:19.719Z,18.90
2019-03-21T13:32:47.158Z,19.57
2019-03-21T13:35:14.579Z,19.03
2019-03-21T13:37:42.718Z,21.13
2019-03-21T13:40:09.546Z,20.03
2019-03-21T13:42:36.176Z,17.77
2019-03-21T13:45:05.414Z,19.63
2019-03-21T13:47:32.378Z,18.23
2019-03-21T13:49:58.920Z,18.67
2019-03-21T13:52:25.433Z,19.50
2019-03-21T13:54:52.172Z,19.50
2019-03-21T13:57:19.165Z,20.30
2019-03-21T13:59:45.812Z,19.10
2019-03-21T14:02:12.463Z,18.87
2019-03-21T14:04:39.453Z,18.23
2019-03-21T14:07:06.439Z,18.87
2019-03-21T14:09:33.366Z,20.60
2019-03-21T14:12:01.722Z,19.43
2019-03-21T14:14:28.221Z,20.23
2019-03-21T14:16:54.637Z,19.83
2019-03-21T14:19:21.345Z,20.13
2019-03-21T14:21:48.219Z,20.20
2019-03-21T14:24:14.762Z,21.37
2019-03-21T14:26:41.348Z,19.17
2019-03-21T14:29:12.903Z,20.87
2019-03-21T14:31:37.346Z,18.90
2019-03-21T14:34:04.380Z,16.50
2019-03-21T14:36:33.498Z,15.50
2019-03-21T14:39:00.094Z,16.47
2019-03-21T14:41:26.720Z,16.87
2019-03-21T14:43:55.007Z,13.50
2019-03-21T14:46:21.720Z,15.00
2019-03-21T14:48:48.274Z,14.83
2019-03-21T14:51:14.865Z,14.00
2019-03-21T14:53:42.519Z,16.73
2019-03-21T14:56:09.209Z,16.07
2019-03-21T14:58:35.785Z,18.53
2019-03-21T15:01:03.667Z,17.73
2019-03-21T15:03:30.137Z,18.77
2019-03-21T15:05:57.012Z,18.40
2019-03-21T15:08:25.651Z,17.37
2019-03-21T15:10:52.188Z,19.10
2019-03-21T15:13:18.575Z,19.50
2019-03-21T15:15:45.041Z,20.20
2019-03-21T15:18:12.187Z,19.93
2019-03-21T15:20:38.704Z,20.40
2019-03-21T15:23:05.373Z,19.67
2019-03-21T15:25:32.044Z,20.63
2019-03-21T15:27:59.270Z,19.63
2019-03-21T15:30:25.716Z,19.10
2019-03-21T15:32:52.809Z,21.27
2019-03-21T15:35:20.047Z,22.63
2019-03-21T15:37:46.790Z,26.30
2019-03-21T15:40:14.988Z,18.80
2019-03-21T15:42:41.667Z,19.90
2019-03-21T15:45:22.859Z,21.30
2019-03-21T15:47:46.026Z,18.37
2019-03-21T15:50:37.564Z,19.67
2019-03-21T15:53:05.413Z,21.37
2019-03-21T15:55:32.603Z,21.73
2019-03-21T15:58:00.501Z,22.10
2019-03-21T16:00:35.126Z,19.47
2019-03-21T16:03:03.709Z,30.83
2019-03-21T16:05:31.857Z,25.73
2019-03-21T16:07:58.538Z,22.60
2019-03-21T16:10:25.874Z,23.77
2019-03-21T16:12:52.346Z,22.43
2019-03-21T16:15:19.008Z,23.03
2019-03-21T16:17:47.128Z,21.00
2019-03-21T16:20:15.916Z,21.30
2019-03-21T16:22:45.540Z,22.10
2019-03-21T16:25:12.154Z,20.93
2019-03-21T16:27:40.734Z,24.53
2019-03-21T16:30:10.364Z,24.53
2019-03-21T16:32:37.019Z,23.47
2019-03-21T16:35:06.931Z,26.30
2019-03-21T16:37:34.504Z,22.60
2019-03-21T16:40:01.175Z,22.87
2019-03-21T16:42:29.809Z,22.87
2019-03-21T16:44:56.383Z,20.83
2019-03-21T16:47:23.105Z,19.93
2019-03-21T16:49:49.688Z,20.57
2019-03-21T16:52:16.230Z,20.87
2019-03-21T16:54:42.829Z,19.27
2019-03-21T16:57:09.772Z,19.40
2019-03-21T16:59:36.642Z,20.63
2019-03-21T17:02:03.593Z,22.63
2019-03-21T17:04:32.505Z,20.57
2019-03-21T17:06:59.213Z,22.13
2019-03-21T17:09:27.618Z,22.20
2019-03-21T17:11:55.411Z,22.47
2019-03-21T17:14:22.253Z,23.03
2019-03-21T17:16:49.330Z,20.37
2019-03-21T17:19:17.544Z,20.00
2019-03-21T17:21:44.256Z,24.27
2019-03-21T17:24:11.073Z,25.10
2019-03-21T17:26:38.549Z,21.13
2019-03-21T17:29:07.211Z,28.27
2019-03-21T17:31:33.791Z,31.83
2019-03-21T17:34:04.103Z,30.20
2019-03-21T17:36:30.972Z,32.50
2019-03-21T17:38:57.581Z,38.53
2019-03-21T17:41:24.247Z,31.83
2019-03-21T17:43:51.166Z,30.23
2019-03-21T17:46:19.117Z,25.40
2019-03-21T17:48:46.954Z,22.90
2019-03-21T17:51:15.298Z,29.80
2019-03-21T17:53:42.342Z,27.20
2019-03-21T17:56:09.160Z,31.80
2019-03-21T17:58:36.591Z,23.27
2019-03-21T18:01:04.188Z,21.70
2019-03-21T18:03:31.006Z,23.27
2019-03-21T18:05:57.733Z,19.80
2019-03-21T18:08:24.340Z,22.40
2019-03-21T18:10:51.951Z,22.40
2019-03-21T18:13:18.548Z,22.03
2019-03-21T18:15:45.279Z,19.27
2019-03-21T18:18:12.088Z,21.10
2019-03-21T18:20:40.480Z,22.93
2019-03-21T18:23:07.272Z,20.13
2019-03-21T18:25:35.131Z,23.83
2019-03-21T18:28:02.015Z,19.97
2019-03-21T18:30:48.627Z,20.37
2019-03-21T18:33:19.196Z,20.63
2019-03-21T18:35:44.390Z,21.83
2019-03-21T18:38:11.113Z,21.17
2019-03-21T18:40:37.895Z,19.60
2019-03-21T18:43:04.539Z,20.43
2019-03-21T18:45:32.472Z,19.10
2019-03-21T18:47:59.821Z,18.77
2019-03-21T18:50:26.776Z,20.43
2019-03-21T18:52:53.488Z,19.83
2019-03-21T18:55:20.143Z,19.57
2019-03-21T18:57:48.491Z,20.00
2019-03-21T19:00:17.787Z,19.63
2019-03-21T19:02:44.396Z,23.27
2019-03-21T19:05:11.234Z,23.23
2019-03-21T19:07:37.925Z,21.70
2019-03-21T19:10:07.309Z,21.37
2019-03-21T19:12:33.826Z,19.93
2019-03-21T19:15:01.859Z,19.67
2019-03-21T19:17:28.679Z,21.13
2019-03-21T19:19:55.058Z,23.07
2019-03-21T19:22:23.251Z,24.83
2019-03-21T19:24:50.146Z,24.07
2019-03-21T19:27:16.943Z,23.70
2019-03-21T19:29:44.786Z,24.00
2019-03-21T19:32:11.172Z,24.10
2019-03-21T19:34:37.661Z,22.50
2019-03-21T19:37:05.546Z,22.83
2019-03-21T19:39:32.282Z,22.70
2019-03-21T19:41:59.109Z,22.87
2019-03-21T19:44:25.853Z,23.27
2019-03-21T19:46:52.516Z,22.37
2019-03-21T19:49:19.159Z,21.47
2019-03-21T19:51:46.186Z,25.23
2019-03-21T19:54:12.868Z,23.83
2019-03-21T19:56:39.632Z,24.07
2019-03-21T19:59:06.663Z,23.07
2019-03-21T20:01:33.838Z,21.73
2019-03-21T20:04:00.587Z,23.37
2019-03-21T20:06:27.223Z,23.00
2019-03-21T20:08:56.751Z,23.00
2019-03-21T20:11:22.136Z,23.67
2019-03-21T20:13:48.649Z,24.30
2019-03-21T20:16:15.411Z,21.80
2019-03-21T20:18:43.312Z,22.83
2019-03-21T20:21:09.960Z,23.47
2019-03-21T20:23:36.827Z,23.57
2019-03-21T20:26:04.468Z,23.80
2019-03-21T20:28:31.153Z,25.67
2019-03-21T20:30:57.992Z,23.23
2019-03-21T20:33:24.638Z,24.20
2019-03-21T20:35:51.337Z,23.20
2019-03-21T20:38:17.876Z,22.20
2019-03-21T20:40:44.612Z,22.13
2019-03-21T20:43:11.299Z,22.53
2019-03-21T20:45:38.671Z,22.87
2019-03-21T20:48:05.861Z,22.30
2019-03-21T20:50:32.875Z,23.30
2019-03-21T20:52:59.405Z,22.07
2019-03-21T20:55:27.070Z,21.67
2019-03-21T20:57:53.607Z,22.30
2019-03-21T21:00:21.969Z,21.73
2019-03-21T21:02:49.537Z,21.77
2019-03-21T21:05:16.233Z,23.37
2019-03-21T21:07:42.743Z,21.67
2019-03-21T21:10:11.024Z,20.40
2019-03-21T21:12:37.986Z,21.83
2019-03-21T21:15:06.433Z,22.27
2019-03-21T21:18:01.440Z,21.80
2019-03-21T21:20:31.578Z,22.07
2019-03-21T21:22:59.389Z,22.50
2019-03-21T21:25:26.373Z,22.67
2019-03-21T21:27:53.211Z,26.60
2019-03-21T21:30:21.368Z,22.03
2019-03-21T21:32:50.581Z,23.37
2019-03-21T21:35:17.133Z,24.00
2019-03-21T21:37:43.737Z,24.07
2019-03-21T21:40:11.721Z,22.97
2019-03-21T21:42:38.361Z,24.10
2019-03-21T21:45:08.068Z,23.67
2019-03-21T21:47:36.613Z,27.20
2019-03-21T21:50:06.079Z,25.40
2019-03-21T21:52:41.577Z,25.53
2019-03-21T21:55:00.806Z,26.40
2019-03-21T21:57:27.498Z,25.87
2019-03-21T21:59:54.477Z,25.70
2019-03-21T22:02:21.452Z,26.30
2019-03-21T22:04:48.816Z,27.67
2019-03-21T22:07:15.366Z,25.67
2019-03-21T22:09:41.920Z,79.57
2019-03-21T22:12:09.466Z,26.47
2019-03-21T22:14:36.034Z,25.77
2019-03-21T22:17:02.754Z,27.20
2019-03-21T22:19:30.855Z,30.13
2019-03-21T22:21:57.549Z,29.33
2019-03-21T22:24:24.774Z,26.93
2019-03-21T22:26:52.384Z,27.33
2019-03-21T22:29:19.047Z,28.03
2019-03-21T22:31:45.533Z,28.20
2019-03-21T22:34:12.055Z,27.33
2019-03-21T22:36:48.986Z,27.20
2019-03-21T22:39:07.027Z,27.73
2019-03-21T22:41:33.572Z,27.40
2019-03-21T22:44:00.093Z,28.30
2019-03-21T22:46:26.897Z,32.20
2019-03-21T22:48:53.980Z,35.73
2019-03-21T22:51:20.542Z,27.83
2019-03-21T22:53:46.950Z,27.70
2019-03-21T22:56:13.521Z,28.90
2019-03-21T22:58:39.937Z,29.27
2019-03-21T23:01:07.030Z,29.10
2019-03-21T23:03:33.590Z,28.63
2019-03-21T23:06:01.642Z,26.03
2019-03-21T23:08:28.523Z,27.73
2019-03-21T23:10:55.051Z,27.73
2019-03-21T23:13:21.767Z,27.50
2019-03-21T23:15:48.481Z,27.33
2019-03-21T23:18:15.357Z,26.70
2019-03-21T23:20:41.913Z,27.53
2019-03-21T23:23:08.594Z,27.43
2019-03-21T23:25:36.203Z,26.73
2019-03-21T23:28:02.788Z,27.30
2019-03-21T23:30:29.360Z,26.77
2019-03-21T23:32:55.820Z,27.30
2019-03-21T23:35:22.611Z,27.50
2019-03-21T23:37:49.173Z,29.57
2019-03-21T23:40:16.044Z,26.67
2019-03-21T23:42:43.018Z,28.70
2019-03-21T23:45:11.196Z,28.40
2019-03-21T23:47:39.545Z,26.77
2019-03-21T23:50:08.339Z,27.77
2019-03-21T23:52:36.852Z,25.77
2019-03-21T23:55:08.779Z,26.50
2019-03-21T23:57:35.322Z,25.83
